Time;durP1;ratioP1;P1;durP2;ratioP2;P2;SDS_P1;SDS_P2;PMS_P1;PMS_P2;Temp;Humidity;BMP_temperature;BMP_pressure;BME280_temperature;BME280_humidity;BME280_pressure;Samples;Min_cycle;Max_cycle;Signal;HPM_P1;HPM_P2
2022/09/01 00:02:26;;;;;;;21.55;3.47;;;;;;;;;;5045000;28;20104;-82
2022/09/01 00:04:57;;;;;;;24.63;3.17;;;;;;;;;;5036115;28;20124;-80
2022/09/01 00:07:29;;;;;;;24.02;3.53;;;;;;;;;;5039830;28;20049;-82
2022/09/01 00:09:54;;;;;;;19.05;3.35;;;;;;;;;;5036593;28;20109;-80
2022/09/01 00:12:21;;;;;;;25.58;3.47;;;;;;;;;;5038275;28;20080;-79
2022/09/01 00:14:48;;;;;;;18.67;3.55;;;;;;;;;;5030023;28;20045;-81
2022/09/01 00:17:14;;;;;;;20.20;3.63;;;;;;;;;;5036594;28;20132;-80
2022/09/01 00:19:40;;;;;;;14.55;2.85;;;;;;;;;;5037194;28;20480;-80
2022/09/01 00:22:06;;;;;;;21.35;3.63;;;;;;;;;;5035512;28;20101;-81
2022/09/01 00:24:32;;;;;;;17.67;3.25;;;;;;;;;;5039019;28;20041;-82
2022/09/01 00:26:58;;;;;;;22.30;3.40;;;;;;;;;;5038294;28;20072;-83
2022/09/01 00:29:25;;;;;;;22.35;3.40;;;;;;;;;;5038450;28;20060;-79
2022/09/01 00:31:51;;;;;;;18.30;3.25;;;;;;;;;;5042059;28;20041;-76
2022/09/01 00:34:17;;;;;;;16.15;3.08;;;;;;;;;;5036086;28;20054;-78
2022/09/01 00:36:43;;;;;;;21.08;3.95;;;;;;;;;;5043555;28;20061;-79
2022/09/01 00:39:09;;;;;;;14.10;3.30;;;;;;;;;;5041638;28;20376;-79
2022/09/01 00:41:38;;;;;;;18.63;3.10;;;;;;;;;;5042881;28;20367;-81
2022/09/01 00:44:10;;;;;;;17.60;3.13;;;;;;;;;;5042368;28;20167;-81
2022/09/01 00:46:40;;;;;;;16.17;3.53;;;;;;;;;;5041443;28;20073;-80
2022/09/01 00:49:30;;;;;;;17.42;3.63;;;;;;;;;;5031294;28;20492;-80
2022/09/01 00:52:04;;;;;;;26.02;3.28;;;;;;;;;;5037823;28;20041;-79
2022/09/01 00:54:36;;;;;;;20.20;3.50;;;;;;;;;;5031839;28;20046;-79
2022/09/01 00:57:04;;;;;;;17.02;3.53;;;;;;;;;;5036689;28;20048;-80
2022/09/01 00:59:30;;;;;;;17.20;3.17;;;;;;;;;;5036203;28;20062;-79
2022/09/01 01:01:57;;;;;;;16.77;3.65;;;;;;;;;;5035691;28;20046;-79
2022/09/01 01:04:23;;;;;;;20.70;3.70;;;;;;;;;;5029949;28;20499;-79
2022/09/01 01:07:00;;;;;;;18.00;3.88;;;;;;;;;;5029048;28;20077;-70
2022/09/01 01:09:31;;;;;;;15.13;3.20;;;;;;;;;;5027206;28;20053;-70
2022/09/01 01:11:59;;;;;;;17.52;3.20;;;;;;;;;;5024885;28;20517;-71
2022/09/01 01:14:30;;;;;;;14.55;2.90;;;;;;;;;;5024923;28;20493;-69
2022/09/01 01:16:57;;;;;;;17.33;3.35;;;;;;;;;;5024143;28;20051;-68
2022/09/01 01:25:07;;;;;;;22.88;3.90;;;;;;;;;;5023644;28;20046;-68
2022/09/01 01:27:34;;;;;;;18.30;2.92;;;;;;;;;;5026857;28;20080;-68
2022/09/01 01:30:03;;;;;;;16.08;3.30;;;;;;;;;;5021075;28;20041;-70
2022/09/01 01:32:29;;;;;;;18.27;3.28;;;;;;;;;;5021215;28;20376;-70
2022/09/01 01:34:56;;;;;;;21.63;3.60;;;;;;;;;;5027920;28;20052;-69
2022/09/01 01:37:23;;;;;;;22.70;3.95;;;;;;;;;;5027964;28;20054;-70
2022/09/01 01:39:49;;;;;;;17.25;3.60;;;;;;;;;;5026525;28;20056;-70
2022/09/01 01:42:16;;;;;;;14.43;3.22;;;;;;;;;;5026958;28;20072;-69
2022/09/01 01:44:43;;;;;;;18.52;3.55;;;;;;;;;;5027420;28;20045;-68
2022/09/01 01:47:11;;;;;;;20.80;3.80;;;;;;;;;;5019745;28;20045;-69
2022/09/01 01:49:42;;;;;;;18.17;3.47;;;;;;;;;;5022399;28;20044;-68
2022/09/01 01:52:12;;;;;;;15.63;2.92;;;;;;;;;;5026464;28;20041;-68
2022/09/01 01:54:38;;;;;;;20.95;3.78;;;;;;;;;;5024092;28;20116;-69
2022/09/01 01:57:04;;;;;;;17.77;4.38;;;;;;;;;;5021026;28;20137;-69
2022/09/01 01:59:32;;;;;;;21.15;3.75;;;;;;;;;;5026326;28;20073;-68
2022/09/01 02:01:59;;;;;;;17.58;3.95;;;;;;;;;;5029678;28;20049;-68
2022/09/01 02:04:32;;;;;;;28.25;4.47;;;;;;;;;;5023949;28;20594;-68
2022/09/01 02:06:58;;;;;;;21.58;4.60;;;;;;;;;;5024627;28;20455;-68
2022/09/01 02:09:25;;;;;;;24.48;4.45;;;;;;;;;;5026996;28;20067;-69
2022/09/01 02:11:57;;;;;;;18.10;3.83;;;;;;;;;;5032365;28;20160;-70
2022/09/01 02:14:23;;;;;;;21.80;4.15;;;;;;;;;;5033789;28;20049;-71
2022/09/01 02:16:49;;;;;;;16.40;4.00;;;;;;;;;;5024851;28;20135;-69
2022/09/01 02:19:18;;;;;;;19.20;3.47;;;;;;;;;;5026936;28;20502;-70
2022/09/01 02:21:54;;;;;;;17.20;3.67;;;;;;;;;;5023714;28;20470;-70
2022/09/01 02:24:22;;;;;;;22.00;3.92;;;;;;;;;;5031810;28;20049;-69
2022/09/01 02:26:49;;;;;;;17.02;3.80;;;;;;;;;;5029598;28;20033;-72
2022/09/01 02:29:20;;;;;;;20.95;3.95;;;;;;;;;;5031823;28;20114;-68
2022/09/01 02:31:50;;;;;;;18.60;4.05;;;;;;;;;;5020531;28;20116;-69
2022/09/01 02:34:17;;;;;;;15.65;3.50;;;;;;;;;;5026715;28;20065;-68
2022/09/01 02:36:49;;;;;;;16.13;3.40;;;;;;;;;;5029495;28;20545;-69
2022/09/01 02:39:19;;;;;;;19.45;4.00;;;;;;;;;;5025805;28;20045;-69
2022/09/01 02:41:45;;;;;;;19.13;3.83;;;;;;;;;;5023062;28;20056;-69
2022/09/01 02:44:11;;;;;;;20.42;4.30;;;;;;;;;;5030651;28;20423;-67
2022/09/01 02:46:42;;;;;;;24.52;4.25;;;;;;;;;;5030325;28;20053;-69
2022/09/01 02:49:27;;;;;;;20.48;4.22;;;;;;;;;;5029749;28;20397;-68
2022/09/01 02:51:56;;;;;;;;;;;;;;;;;;5024922;28;20096;-69
2022/09/01 02:54:23;;;;;;;21.95;4.10;;;;;;;;;;5032941;28;20362;-71
2022/09/01 02:56:53;;;;;;;16.88;3.78;;;;;;;;;;5029236;28;20147;-68
2022/09/01 02:59:21;;;;;;;19.65;3.90;;;;;;;;;;5022623;28;20046;-69
2022/09/01 03:01:49;;;;;;;19.33;4.25;;;;;;;;;;5022893;28;20050;-70
2022/09/01 03:04:16;;;;;;;18.52;3.83;;;;;;;;;;5026135;28;20058;-68
2022/09/01 03:06:42;;;;;;;12.32;3.58;;;;;;;;;;5013585;28;20432;-69
2022/09/01 03:09:12;;;;;;;21.17;3.60;;;;;;;;;;5020800;28;20041;-69
2022/09/01 03:11:39;;;;;;;22.58;4.35;;;;;;;;;;5021275;28;20416;-68
2022/09/01 03:14:06;;;;;;;14.32;3.08;;;;;;;;;;5028946;28;20481;-68
2022/09/01 03:16:34;;;;;;;20.15;4.50;;;;;;;;;;5030507;28;20418;-68
2022/09/01 03:19:02;;;;;;;15.63;3.38;;;;;;;;;;5030836;28;20050;-69
2022/09/01 03:21:30;;;;;;;20.80;3.70;;;;;;;;;;5028737;28;20057;-68
2022/09/01 03:23:57;;;;;;;27.42;4.20;;;;;;;;;;5029235;28;20041;-67
2022/09/01 03:26:23;;;;;;;22.90;4.15;;;;;;;;;;5031710;28;20124;-69
2022/09/01 03:28:51;;;;;;;19.27;3.72;;;;;;;;;;5028727;28;20059;-67
2022/09/01 03:31:18;;;;;;;30.77;4.20;;;;;;;;;;5028499;28;20045;-68
2022/09/01 03:33:45;;;;;;;14.52;4.10;;;;;;;;;;5029585;28;20510;-69
2022/09/01 03:36:17;;;;;;;17.42;3.35;;;;;;;;;;5028550;28;20050;-70
2022/09/01 03:38:48;;;;;;;20.65;3.92;;;;;;;;;;5029970;28;20073;-68
2022/09/01 03:41:16;;;;;;;18.95;4.45;;;;;;;;;;5026571;28;20129;-69
2022/09/01 03:43:44;;;;;;;25.98;4.88;;;;;;;;;;5028797;28;20244;-68
2022/09/01 03:46:18;;;;;;;15.43;4.22;;;;;;;;;;5022186;28;20061;-69
2022/09/01 03:48:46;;;;;;;;;;;;;;;;;;5029031;28;20430;-68
2022/09/01 03:51:13;;;;;;;21.95;3.90;;;;;;;;;;5030350;28;20248;-67
2022/09/01 03:53:39;;;;;;;22.60;4.75;;;;;;;;;;5030199;28;20483;-70
2022/09/01 03:56:07;;;;;;;18.88;4.28;;;;;;;;;;5025135;28;20056;-68
2022/09/01 03:58:33;;;;;;;26.80;4.32;;;;;;;;;;5027774;28;20443;-67
2022/09/01 04:01:01;;;;;;;20.13;4.13;;;;;;;;;;5026078;28;20183;-67
2022/09/01 04:03:31;;;;;;;18.83;3.67;;;;;;;;;;5020777;28;20445;-69
2022/09/01 04:05:58;;;;;;;22.63;4.57;;;;;;;;;;5029558;28;20049;-67
2022/09/01 04:08:29;;;;;;;17.58;4.32;;;;;;;;;;5029074;28;20702;-69
2022/09/01 04:10:58;;;;;;;19.48;4.38;;;;;;;;;;5029081;28;20137;-70
2022/09/01 04:13:34;;;;;;;25.70;4.32;;;;;;;;;;5028457;28;20046;-69
2022/09/01 04:16:00;;;;;;;26.35;4.40;;;;;;;;;;5030866;28;20074;-70
2022/09/01 04:18:26;;;;;;;21.38;4.72;;;;;;;;;;5029430;28;20073;-68
2022/09/01 04:20:55;;;;;;;20.38;4.68;;;;;;;;;;5026247;28;20041;-68
2022/09/01 04:23:28;;;;;;;25.38;4.68;;;;;;;;;;5018098;28;20393;-68
2022/09/01 04:26:07;;;;;;;20.67;4.35;;;;;;;;;;5025644;28;20076;-70
2022/09/01 04:28:37;;;;;;;27.40;5.55;;;;;;;;;;5029591;28;20041;-68
2022/09/01 04:31:08;;;;;;;22.50;5.15;;;;;;;;;;5024685;28;20563;-67
2022/09/01 04:33:39;;;;;;;24.33;4.63;;;;;;;;;;5028619;28;20045;-67
2022/09/01 04:36:18;;;;;;;21.77;4.22;;;;;;;;;;5027754;28;20056;-69
2022/09/01 04:38:45;;;;;;;22.10;4.80;;;;;;;;;;5020177;28;20067;-68
2022/09/01 04:41:16;;;;;;;27.27;4.85;;;;;;;;;;5025516;28;20430;-69
2022/09/01 04:43:46;;;;;;;24.35;4.68;;;;;;;;;;5018899;28;20131;-70
2022/09/01 04:46:15;;;;;;;23.73;5.05;;;;;;;;;;5028784;28;20060;-68
2022/09/01 04:48:44;;;;;;;19.48;4.53;;;;;;;;;;5024316;28;20076;-65
2022/09/01 04:51:14;;;;;;;20.83;4.13;;;;;;;;;;5024260;28;20045;-66
2022/09/01 04:53:47;;;;;;;22.17;4.53;;;;;;;;;;5021446;28;20088;-68
2022/09/01 04:56:18;;;;;;;19.80;3.95;;;;;;;;;;5021109;28;20116;-64
2022/09/01 04:58:46;;;;;;;21.88;4.10;;;;;;;;;;5000139;28;20045;-65
2022/09/01 05:01:18;;;;;;;22.48;4.20;;;;;;;;;;5015609;28;20050;-64
2022/09/01 05:03:46;;;;;;;23.98;5.18;;;;;;;;;;5017428;28;20041;-67
2022/09/01 05:06:16;;;;;;;15.27;3.80;;;;;;;;;;5021700;28;20524;-65
2022/09/01 05:08:44;;;;;;;24.38;4.72;;;;;;;;;;5020483;28;20077;-65
2022/09/01 05:11:11;;;;;;;19.10;4.50;;;;;;;;;;5017201;28;20414;-64
2022/09/01 05:13:38;;;;;;;24.60;4.75;;;;;;;;;;5017803;28;20531;-66
2022/09/01 05:16:11;;;;;;;20.83;4.40;;;;;;;;;;5013949;28;20049;-65
2022/09/01 05:18:39;;;;;;;24.35;4.90;;;;;;;;;;5019786;28;20594;-64
2022/09/01 05:21:09;;;;;;;29.63;4.72;;;;;;;;;;5021508;28;20056;-64
2022/09/01 05:23:39;;;;;;;20.90;4.65;;;;;;;;;;5021425;28;20045;-65
2022/09/01 05:26:15;;;;;;;19.50;4.18;;;;;;;;;;5022395;28;20146;-66
2022/09/01 05:28:43;;;;;;;22.98;3.80;;;;;;;;;;5019096;28;20041;-64
2022/09/01 05:31:09;;;;;;;19.15;4.00;;;;;;;;;;5021400;28;20054;-65
2022/09/01 05:33:35;;;;;;;18.70;4.57;;;;;;;;;;5023211;28;20561;-64
2022/09/01 05:36:07;;;;;;;27.20;4.50;;;;;;;;;;5023135;28;20080;-65
2022/09/01 05:38:34;;;;;;;22.48;4.20;;;;;;;;;;5022535;28;20136;-63
2022/09/01 05:41:07;;;;;;;21.08;4.28;;;;;;;;;;5019648;28;20061;-65
2022/09/01 05:43:34;;;;;;;26.92;4.72;;;;;;;;;;5023276;28;20092;-66
2022/09/01 05:46:05;;;;;;;24.42;4.72;;;;;;;;;;5023838;28;20414;-64
2022/09/01 05:48:38;;;;;;;27.33;4.53;;;;;;;;;;5024061;28;20418;-64
2022/09/01 05:51:06;;;;;;;25.25;4.60;;;;;;;;;;5025151;28;20089;-63
2022/09/01 05:53:33;;;;;;;23.20;4.95;;;;;;;;;;5026997;28;20419;-63
2022/09/01 05:56:05;;;;;;;23.00;4.75;;;;;;;;;;5025756;28;20104;-64
2022/09/01 05:58:33;;;;;;;23.92;4.95;;;;;;;;;;5021919;28;20465;-66
2022/09/01 06:01:00;;;;;;;23.65;5.13;;;;;;;;;;5022542;28;20088;-65
2022/09/01 06:03:27;;;;;;;21.23;4.35;;;;;;;;;;5025645;28;20443;-66
2022/09/01 06:05:54;;;;;;;25.00;4.68;;;;;;;;;;5026812;28;20457;-66
2022/09/01 06:08:26;;;;;;;23.90;4.68;;;;;;;;;;5022919;28;20420;-65
2022/09/01 06:10:53;;;;;;;28.38;4.45;;;;;;;;;;5024612;28;20056;-66
2022/09/01 06:13:20;;;;;;;22.38;4.60;;;;;;;;;;5024812;28;20061;-66
2022/09/01 06:15:52;;;;;;;22.67;4.28;;;;;;;;;;5026781;28;20114;-65
2022/09/01 06:18:20;;;;;;;21.70;4.65;;;;;;;;;;5024655;28;20149;-70
2022/09/01 06:20:48;;;;;;;18.65;4.25;;;;;;;;;;5014900;28;20045;-68
2022/09/01 06:23:16;;;;;;;27.02;4.43;;;;;;;;;;5021309;28;20051;-66
2022/09/01 06:25:45;;;;;;;21.92;5.00;;;;;;;;;;5026392;28;20486;-65
2022/09/01 06:28:18;;;;;;;29.98;4.30;;;;;;;;;;5019474;28;20049;-68
2022/09/01 06:30:45;;;;;;;22.58;4.50;;;;;;;;;;5022130;28;20049;-69
2022/09/01 06:33:12;;;;;;;28.92;4.93;;;;;;;;;;5023564;28;20052;-69
2022/09/01 06:35:40;;;;;;;28.90;5.03;;;;;;;;;;5013428;28;20213;-71
2022/09/01 06:38:08;;;;;;;24.90;4.55;;;;;;;;;;5018391;28;20443;-69
2022/09/01 06:40:40;;;;;;;24.58;3.90;;;;;;;;;;5025702;28;20106;-68
2022/09/01 06:43:07;;;;;;;29.05;5.60;;;;;;;;;;5030890;28;20538;-70
2022/09/01 06:45:39;;;;;;;28.73;6.22;;;;;;;;;;5029612;28;20141;-69
2022/09/01 06:48:05;;;;;;;30.90;4.80;;;;;;;;;;5030035;28;20041;-68
2022/09/01 06:50:31;;;;;;;18.52;4.70;;;;;;;;;;5030532;28;20050;-70
2022/09/01 06:53:09;;;;;;;29.25;5.50;;;;;;;;;;5029068;28;20550;-68
2022/09/01 06:55:37;;;;;;;22.20;5.63;;;;;;;;;;5028973;28;20049;-68
2022/09/01 06:58:06;;;;;;;25.17;5.53;;;;;;;;;;5026290;28;20590;-68
2022/09/01 07:00:36;;;;;;;22.48;4.72;;;;;;;;;;5028166;28;20049;-69
2022/09/01 07:03:06;;;;;;;25.98;5.72;;;;;;;;;;5028772;28;20117;-69
2022/09/01 07:05:33;;;;;;;26.95;5.10;;;;;;;;;;5029851;28;20057;-70
2022/09/01 07:07:58;;;;;;;25.45;5.13;;;;;;;;;;5023626;28;20049;-70
2022/09/01 07:10:26;;;;;;;25.77;5.30;;;;;;;;;;5018277;28;20050;-68
2022/09/01 07:12:55;;;;;;;27.73;5.63;;;;;;;;;;5025788;28;20041;-68
2022/09/01 07:15:24;;;;;;;26.92;4.82;;;;;;;;;;5025998;28;20111;-69
2022/09/01 07:17:54;;;;;;;27.45;4.95;;;;;;;;;;5024742;28;20521;-67
2022/09/01 07:20:23;;;;;;;27.55;4.25;;;;;;;;;;5029556;28;20495;-69
2022/09/01 07:22:50;;;;;;;27.92;4.72;;;;;;;;;;5028183;28;20084;-67
2022/09/01 07:25:16;;;;;;;22.30;4.80;;;;;;;;;;5026946;28;20119;-72
2022/09/01 07:27:50;;;;;;;34.33;5.07;;;;;;;;;;5029901;28;20041;-74
2022/09/01 07:30:19;;;;;;;22.85;4.70;;;;;;;;;;5027029;28;20054;-74
2022/09/01 07:32:45;;;;;;;24.42;4.75;;;;;;;;;;5031287;28;20192;-74
2022/09/01 07:35:14;;;;;;;28.67;5.28;;;;;;;;;;5028955;28;20065;-73
2022/09/01 07:37:39;;;;;;;23.17;4.45;;;;;;;;;;5030225;28;20057;-75
2022/09/01 07:40:09;;;;;;;29.80;4.88;;;;;;;;;;5030090;28;20465;-75
2022/09/01 07:42:37;;;;;;;21.20;4.90;;;;;;;;;;5030599;28;20069;-78
2022/09/01 07:45:08;;;;;;;25.75;4.88;;;;;;;;;;5030033;28;20069;-75
2022/09/01 07:47:36;;;;;;;29.67;5.25;;;;;;;;;;5034929;28;20077;-74
2022/09/01 07:50:07;;;;;;;28.58;4.80;;;;;;;;;;5037028;28;20061;-73
2022/09/01 07:52:48;;;;;;;28.55;4.85;;;;;;;;;;5028704;28;20057;-74
2022/09/01 07:55:15;;;;;;;16.25;4.65;;;;;;;;;;5027078;28;20045;-75
2022/09/01 07:57:45;;;;;;;25.77;4.57;;;;;;;;;;5031518;28;20133;-75
2022/09/01 08:00:14;;;;;;;27.40;4.85;;;;;;;;;;5026090;28;20637;-71
2022/09/01 08:02:43;;;;;;;28.13;5.00;;;;;;;;;;5026278;28;20131;-78
2022/09/01 08:05:13;;;;;;;22.33;4.80;;;;;;;;;;5027782;28;20049;-77
2022/09/01 08:07:39;;;;;;;30.08;4.72;;;;;;;;;;5022640;28;20050;-74
2022/09/01 08:10:07;;;;;;;24.05;4.60;;;;;;;;;;5025250;28;20053;-74
2022/09/01 08:12:34;;;;;;;22.17;4.25;;;;;;;;;;5026816;28;20077;-73
2022/09/01 08:15:11;;;;;;;26.73;4.25;;;;;;;;;;5027790;28;20056;-79
2022/09/01 08:17:39;;;;;;;29.38;5.25;;;;;;;;;;5022887;28;20564;-73
2022/09/01 08:20:08;;;;;;;23.35;4.55;;;;;;;;;;5020044;28;20133;-74
2022/09/01 08:22:36;;;;;;;23.13;4.82;;;;;;;;;;5026252;28;20384;-76
2022/09/01 08:25:07;;;;;;;25.42;4.78;;;;;;;;;;5021745;28;20132;-77
2022/09/01 08:27:35;;;;;;;22.10;4.00;;;;;;;;;;5028210;28;20045;-76
2022/09/01 08:30:11;;;;;;;25.48;4.45;;;;;;;;;;5025853;28;20502;-76
2022/09/01 08:32:40;;;;;;;29.60;4.22;;;;;;;;;;5029898;28;20068;-81
2022/09/01 08:35:09;;;;;;;26.45;4.25;;;;;;;;;;5032446;28;20077;-78
2022/09/01 08:37:36;;;;;;;27.30;4.43;;;;;;;;;;5030300;28;20443;-75
2022/09/01 08:40:04;;;;;;;23.67;5.30;;;;;;;;;;5025823;28;20508;-75
2022/09/01 08:42:57;;;;;;;30.20;4.43;;;;;;;;;;5033545;28;20056;-81
2022/09/01 08:45:37;;;;;;;21.63;4.90;;;;;;;;;;5032538;28;20061;-75
2022/09/01 08:48:43;;;;;;;25.25;4.65;;;;;;;;;;5031190;28;20072;-77
2022/09/01 08:51:24;;;;;;;26.73;4.32;;;;;;;;;;5022642;28;20053;-79
2022/09/01 08:54:14;;;;;;;22.73;4.50;;;;;;;;;;5025892;28;20041;-80
2022/09/01 08:56:40;;;;;;;24.17;4.72;;;;;;;;;;5034100;28;20120;-79
2022/09/01 08:59:11;;;;;;;23.40;4.65;;;;;;;;;;5025940;28;20045;-74
2022/09/01 09:01:51;;;;;;;21.90;4.13;;;;;;;;;;5022263;28;20046;-75
2022/09/01 09:04:46;;;;;;;15.07;4.13;;;;;;;;;;5019838;28;20479;-75
2022/09/01 09:08:00;;;;;;;21.05;4.28;;;;;;;;;;5019610;28;20375;-74
2022/09/01 09:10:33;;;;;;;25.42;4.60;;;;;;;;;;5014793;28;20268;-72
2022/09/01 09:13:19;;;;;;;25.80;4.35;;;;;;;;;;5022218;28;20053;-75
2022/09/01 09:16:09;;;;;;;20.17;3.95;;;;;;;;;;5023654;28;20046;-79
2022/09/01 09:18:42;;;;;;;23.77;4.43;;;;;;;;;;5029226;28;20336;-71
2022/09/01 09:21:14;;;;;;;32.78;4.97;;;;;;;;;;5030368;28;20045;-72
2022/09/01 09:23:45;;;;;;;21.63;4.32;;;;;;;;;;5029519;28;20053;-72
2022/09/01 09:26:12;;;;;;;17.33;3.55;;;;;;;;;;5027149;28;20052;-71
2022/09/01 09:28:39;;;;;;;24.70;4.03;;;;;;;;;;5025294;28;20407;-72
2022/09/01 09:31:24;;;;;;;20.08;4.35;;;;;;;;;;5029717;28;20050;-72
2022/09/01 09:33:50;;;;;;;18.90;4.00;;;;;;;;;;5025207;28;20041;-72
2022/09/01 09:36:20;;;;;;;17.48;3.58;;;;;;;;;;5033120;28;20560;-74
2022/09/01 09:38:46;;;;;;;18.33;3.65;;;;;;;;;;5030198;28;20125;-74
2022/09/01 09:41:12;;;;;;;17.52;3.67;;;;;;;;;;5026906;28;20069;-72
2022/09/01 09:43:47;;;;;;;23.02;3.67;;;;;;;;;;5028776;28;20111;-73
2022/09/01 09:46:26;;;;;;;18.25;3.53;;;;;;;;;;5023496;28;20128;-78
2022/09/01 09:49:30;;;;;;;15.07;3.88;;;;;;;;;;5031975;28;20383;-77
2022/09/01 09:52:12;;;;;;;15.57;3.67;;;;;;;;;;5034978;28;20507;-81
2022/09/01 09:54:56;;;;;;;15.75;3.47;;;;;;;;;;5032783;28;20049;-81
2022/09/01 09:57:23;;;;;;;19.83;3.80;;;;;;;;;;5019477;28;20048;-81
2022/09/01 09:59:54;;;;;;;12.98;3.60;;;;;;;;;;5031240;28;20144;-78
2022/09/01 10:02:39;;;;;;;19.50;4.18;;;;;;;;;;5031907;28;20111;-78
2022/09/01 10:05:27;;;;;;;18.60;3.45;;;;;;;;;;5030272;28;20057;-78
2022/09/01 10:07:54;;;;;;;15.57;3.50;;;;;;;;;;5024257;28;20048;-77
2022/09/01 10:10:44;;;;;;;15.90;3.53;;;;;;;;;;5030649;28;20128;-77
2022/09/01 10:13:20;;;;;;;18.65;3.70;;;;;;;;;;5032822;28;20061;-80
2022/09/01 10:15:52;;;;;;;14.13;3.38;;;;;;;;;;5037011;28;20125;-77
2022/09/01 10:18:21;;;;;;;19.00;4.18;;;;;;;;;;4978479;28;1653934;-76
2022/09/01 10:21:01;;;;;;;14.73;3.50;;;;;;;;;;5026113;28;20041;-79
2022/09/01 10:23:33;;;;;;;13.25;3.55;;;;;;;;;;5034866;28;20054;-72
2022/09/01 10:26:37;;;;;;;14.80;3.47;;;;;;;;;;5032230;28;20076;-73
2022/09/01 10:29:20;;;;;;;15.50;3.33;;;;;;;;;;4990729;28;20125;-75
2022/09/01 10:31:46;;;;;;;22.13;4.10;;;;;;;;;;4986496;28;20059;-70
2022/09/01 10:34:16;;;;;;;18.23;3.35;;;;;;;;;;4989613;28;20046;-72
2022/09/01 10:36:44;;;;;;;16.48;3.08;;;;;;;;;;4989880;28;20586;-71
2022/09/01 10:39:12;;;;;;;18.98;3.60;;;;;;;;;;4989348;28;20468;-71
2022/09/01 10:41:55;;;;;;;17.15;3.47;;;;;;;;;;4989801;28;20050;-71
2022/09/01 10:44:37;;;;;;;15.97;3.40;;;;;;;;;;4990850;28;20102;-79
2022/09/01 10:47:25;;;;;;;17.92;3.20;;;;;;;;;;4989033;28;20054;-71
2022/09/01 10:49:51;;;;;;;16.77;3.40;;;;;;;;;;4985297;28;20050;-69
2022/09/01 10:52:41;;;;;;;12.50;3.83;;;;;;;;;;4988777;28;20068;-70
2022/09/01 10:55:38;;;;;;;16.83;3.35;;;;;;;;;;4986099;28;20544;-72
2022/09/01 10:58:18;;;;;;;13.85;3.58;;;;;;;;;;4982597;28;20598;-70
2022/09/01 11:00:48;;;;;;;18.02;4.07;;;;;;;;;;4988294;28;20420;-71
2022/09/01 11:03:17;;;;;;;15.50;3.22;;;;;;;;;;5003422;28;20041;-69
2022/09/01 11:06:07;;;;;;;19.77;3.80;;;;;;;;;;5021992;28;20056;-69
2022/09/01 11:08:33;;;;;;;15.15;3.10;;;;;;;;;;5019106;28;20156;-68
2022/09/01 11:11:24;;;;;;;15.18;3.67;;;;;;;;;;5010287;28;20476;-65
2022/09/01 11:13:57;;;;;;;17.35;3.30;;;;;;;;;;5016050;28;20617;-67
2022/09/01 11:16:31;;;;;;;20.43;3.83;;;;;;;;;;5017934;28;20049;-65
2022/09/01 11:19:15;;;;;;;;;;;;;;;;;;5029078;28;20304;-65
2022/09/01 11:21:42;;;;;;;18.50;3.60;;;;;;;;;;5029160;28;19982;-67
2022/09/01 11:24:52;;;;;;;14.07;3.15;;;;;;;;;;5028643;28;20103;-66
2022/09/01 11:27:49;;;;;;;16.15;3.20;;;;;;;;;;5007938;28;20136;-67
2022/09/01 11:30:19;;;;;;;16.83;3.70;;;;;;;;;;5009490;28;20196;-68
2022/09/01 11:32:49;;;;;;;17.38;3.53;;;;;;;;;;5013053;28;20132;-67
2022/09/01 11:35:21;;;;;;;26.98;3.97;;;;;;;;;;5007589;28;20041;-67
2022/09/01 11:37:49;;;;;;;18.50;3.38;;;;;;;;;;5008223;28;20078;-67
2022/09/01 11:40:28;;;;;;;21.33;4.05;;;;;;;;;;4994226;28;20494;-67
2022/09/01 11:42:56;;;;;;;13.80;3.05;;;;;;;;;;5006541;28;20133;-66
2022/09/01 11:45:29;;;;;;;14.15;3.25;;;;;;;;;;5007803;28;20109;-68
2022/09/01 11:48:04;;;;;;;18.85;3.55;;;;;;;;;;5008403;28;20077;-67
2022/09/01 11:50:33;;;;;;;17.23;3.70;;;;;;;;;;5008649;28;20076;-67
2022/09/01 11:53:08;;;;;;;21.17;4.35;;;;;;;;;;5008773;28;20042;-66
2022/09/01 11:55:38;;;;;;;17.30;3.65;;;;;;;;;;5010517;28;20053;-66
2022/09/01 11:58:05;;;;;;;18.10;3.60;;;;;;;;;;5011609;28;20400;-68
2022/09/01 12:00:39;;;;;;;19.60;4.60;;;;;;;;;;5027477;28;20137;-68
2022/09/01 12:03:19;;;;;;;15.68;3.78;;;;;;;;;;5022405;28;20052;-67
2022/09/01 12:05:52;;;;;;;15.73;3.28;;;;;;;;;;5025710;28;20056;-67
2022/09/01 12:08:19;;;;;;;16.80;4.25;;;;;;;;;;5028569;28;20561;-67
2022/09/01 12:10:47;;;;;;;22.83;4.88;;;;;;;;;;5028649;28;20052;-69
2022/09/01 12:13:23;;;;;;;14.07;3.65;;;;;;;;;;5030212;28;20041;-67
2022/09/01 12:15:58;;;;;;;16.45;3.67;;;;;;;;;;5030966;28;20057;-66
2022/09/01 12:18:27;;;;;;;17.15;3.10;;;;;;;;;;5023836;28;20061;-67
2022/09/01 12:20:56;;;;;;;17.02;3.35;;;;;;;;;;5028836;28;20041;-66
2022/09/01 12:23:30;;;;;;;21.98;3.65;;;;;;;;;;5029826;28;20068;-68
2022/09/01 12:26:00;;;;;;;14.73;3.40;;;;;;;;;;5015472;28;20085;-66
2022/09/01 12:28:31;;;;;;;20.60;3.40;;;;;;;;;;5015873;28;20054;-66
2022/09/01 12:31:04;;;;;;;12.88;3.50;;;;;;;;;;5028545;28;20494;-67
2022/09/01 12:33:31;;;;;;;16.08;3.25;;;;;;;;;;5018865;28;20041;-67
2022/09/01 12:36:19;;;;;;;13.45;3.10;;;;;;;;;;5028539;28;20041;-66
2022/09/01 12:38:45;;;;;;;20.85;3.50;;;;;;;;;;5027626;28;20059;-68
2022/09/01 12:41:33;;;;;;;14.88;3.85;;;;;;;;;;5028497;28;20125;-68
2022/09/01 12:44:33;;;;;;;18.70;4.15;;;;;;;;;;5022288;28;20069;-66
2022/09/01 12:47:12;;;;;;;18.35;3.60;;;;;;;;;;5023924;28;20052;-66
2022/09/01 12:49:43;;;;;;;23.63;3.83;;;;;;;;;;5014512;28;20132;-66
2022/09/01 12:52:24;;;;;;;20.88;3.65;;;;;;;;;;5027441;28;20136;-67
2022/09/01 12:55:15;;;;;;;15.90;3.45;;;;;;;;;;5027638;28;20590;-68
2022/09/01 12:57:50;;;;;;;15.77;3.67;;;;;;;;;;5022537;28;20045;-70
2022/09/01 13:00:22;;;;;;;14.05;3.05;;;;;;;;;;5030247;28;20061;-69
2022/09/01 13:02:51;;;;;;;13.30;3.17;;;;;;;;;;5026217;28;20064;-67
2022/09/01 13:05:20;;;;;;;17.60;4.35;;;;;;;;;;5024318;28;20065;-67
2022/09/01 13:07:46;;;;;;;11.50;3.13;;;;;;;;;;5024189;28;20092;-67
2022/09/01 13:10:13;;;;;;;15.30;3.42;;;;;;;;;;5027980;28;20050;-68
2022/09/01 13:12:44;;;;;;;17.35;3.30;;;;;;;;;;5028052;28;20072;-67
2022/09/01 13:15:11;;;;;;;13.07;3.08;;;;;;;;;;5026283;28;20037;-68
2022/09/01 13:17:37;;;;;;;18.67;3.53;;;;;;;;;;5026256;28;20053;-67
2022/09/01 13:20:05;;;;;;;18.35;3.33;;;;;;;;;;5019625;28;20113;-69
2022/09/01 13:22:31;;;;;;;16.42;3.58;;;;;;;;;;5027397;28;20526;-70
2022/09/01 13:24:57;;;;;;;16.63;4.05;;;;;;;;;;5026004;28;20391;-68
2022/09/01 13:27:23;;;;;;;18.48;3.35;;;;;;;;;;5027181;28;20051;-66
2022/09/01 13:29:50;;;;;;;21.73;4.20;;;;;;;;;;5026926;28;20410;-66
2022/09/01 13:32:17;;;;;;;22.45;3.50;;;;;;;;;;5026666;28;20048;-69
2022/09/01 13:34:43;;;;;;;17.00;3.78;;;;;;;;;;5025324;28;20128;-66
2022/09/01 13:37:09;;;;;;;21.35;3.90;;;;;;;;;;5025935;28;20153;-65
2022/09/01 13:39:35;;;;;;;17.85;3.40;;;;;;;;;;5027391;28;20053;-66
2022/09/01 13:42:01;;;;;;;18.88;3.75;;;;;;;;;;5026409;28;20038;-67
2022/09/01 13:44:27;;;;;;;18.77;3.75;;;;;;;;;;5029014;28;20499;-67
2022/09/01 13:46:54;;;;;;;17.30;3.67;;;;;;;;;;5024415;28;20045;-67
2022/09/01 13:49:20;;;;;;;21.83;3.90;;;;;;;;;;5028822;28;20046;-68
2022/09/01 13:51:52;;;;;;;16.55;3.38;;;;;;;;;;5029064;28;20547;-68
2022/09/01 13:54:19;;;;;;;20.35;3.90;;;;;;;;;;5028833;28;20042;-68
2022/09/01 13:56:45;;;;;;;22.88;3.67;;;;;;;;;;5028249;28;20046;-67
2022/09/01 13:59:12;;;;;;;22.08;3.80;;;;;;;;;;5022675;28;20033;-66
2022/09/01 14:01:39;;;;;;;17.67;3.92;;;;;;;;;;5027345;28;20057;-67
2022/09/01 14:04:05;;;;;;;24.20;3.90;;;;;;;;;;5028049;28;20045;-68
2022/09/01 14:06:31;;;;;;;17.48;3.83;;;;;;;;;;5028740;28;20056;-66
2022/09/01 14:08:57;;;;;;;17.33;3.55;;;;;;;;;;5030448;28;20422;-67
2022/09/01 14:11:25;;;;;;;18.80;4.13;;;;;;;;;;5028577;28;20062;-68
2022/09/01 14:13:51;;;;;;;20.70;3.78;;;;;;;;;;5030590;28;20499;-66
2022/09/01 14:16:18;;;;;;;21.63;3.80;;;;;;;;;;5030283;28;20439;-68
2022/09/01 14:18:44;;;;;;;18.67;4.28;;;;;;;;;;5033273;28;20057;-68
2022/09/01 14:21:13;;;;;;;14.93;3.45;;;;;;;;;;5033841;28;20511;-67
2022/09/01 14:23:41;;;;;;;17.05;3.60;;;;;;;;;;5034086;28;20083;-67
2022/09/01 14:26:12;;;;;;;16.15;3.67;;;;;;;;;;5031282;28;20049;-69
2022/09/01 14:28:39;;;;;;;32.58;3.90;;;;;;;;;;5026501;28;20049;-76
2022/09/01 14:31:10;;;;;;;17.88;3.42;;;;;;;;;;5018435;28;20495;-72
2022/09/01 14:33:37;;;;;;;16.77;3.40;;;;;;;;;;5024862;28;20053;-73
2022/09/01 14:36:03;;;;;;;16.15;3.78;;;;;;;;;;5029966;28;20033;-71
2022/09/01 14:38:30;;;;;;;17.00;3.53;;;;;;;;;;5030840;28;20049;-70
2022/09/01 14:40:56;;;;;;;20.95;3.72;;;;;;;;;;5028295;28;20472;-69
2022/09/01 14:43:23;;;;;;;17.80;3.40;;;;;;;;;;5030665;28;20092;-70
2022/09/01 14:45:49;;;;;;;18.10;3.70;;;;;;;;;;5030088;28;20482;-72
2022/09/01 14:48:18;;;;;;;16.65;3.40;;;;;;;;;;5030436;28;20041;-72
2022/09/01 14:50:47;;;;;;;21.48;4.03;;;;;;;;;;5030919;28;20406;-69
2022/09/01 14:53:14;;;;;;;21.42;3.90;;;;;;;;;;5031762;28;20128;-72
2022/09/01 14:55:40;;;;;;;18.10;3.72;;;;;;;;;;5034138;28;21184;-70
2022/09/01 14:58:06;;;;;;;20.85;3.28;;;;;;;;;;5033125;28;20061;-70
2022/09/01 15:00:34;;;;;;;17.08;3.45;;;;;;;;;;5032087;28;20268;-72